My.unforgettable — ZCIZ4 — position and weather

sailwx.info

Track history (hours):
 
Tides and Currents Weather Stations Pressure Air Temp Water Temp Dewpoint Dewpoint Depression Visibility Wind Speed Wind Dir Waves Ship Positions

My.unforgettable

Last reported at 2017-Dec-16 08:50 UTC. Time now 2017-Dec-18 20:15 UTC.
Position N 26°06' W 079°31'.

Length 42 m; draft 2.2 m.

Type: Pleasure craft. MMSI: 319823000.

Date/timePositionNaut miles runAvg speedWind from/ knotsBaromVisibWave heightAir tempDewpointWater temp
2017-Dec-16 08:50N 26°06' W 079°31'3 9.6
2017-Dec-16 08:30N 26°06' W 079°34'5 9.6
2017-Dec-16 08:00N 26°05' W 079°39'4 8.6
2017-Dec-16 07:30N 26°06' W 079°44'5 9.1
2017-Dec-16 07:00N 26°06' W 079°49'5 9.2
2017-Dec-16 06:30N 26°06' W 079°54'5 9.3
2017-Dec-16 06:00N 26°06' W 079°59'5 9.2
2017-Dec-16 05:30N 26°06' W 080°05'1 2.7
2017-Dec-16 04:58N 26°07' W 080°05'0 0.0
2017-Dec-16 04:28N 26°07' W 080°05'0 0.0
2017-Dec-16 03:52N 26°07' W 080°05'0 0.0
2017-Dec-16 03:30N 26°07' W 080°05'0 0.0
2017-Dec-16 03:00N 26°07' W 080°05'0 0.0
2017-Dec-16 02:31N 26°07' W 080°05'0 0.0
2017-Dec-16 02:01N 26°07' W 080°05'0 0.0
2017-Dec-16 01:30N 26°07' W 080°05'0 0.0
2017-Dec-16 01:01N 26°07' W 080°05'0 0.0
2017-Dec-16 00:30N 26°07' W 080°05'0 0.2
2017-Dec-16 00:00N 26°07' W 080°05'0 0.9
2017-Dec-15 23:30N 26°06' W 080°05'0 0.0
2017-Dec-15 23:01N 26°06' W 080°05'0 0.7
2017-Dec-15 22:30N 26°06' W 080°05'2 3.1
2017-Dec-15 22:00N 26°06' W 080°07'0 0.7
2017-Dec-15 21:30N 26°06' W 080°07'0 0.2
2017-Dec-15 21:00N 26°06' W 080°07'2 3.3
2017-Dec-15 20:30N 26°06' W 080°05'2 4.3
2017-Dec-15 20:00N 26°08' W 080°05'1 1.7
2017-Dec-15 19:30N 26°07' W 080°05'0 1.0
2017-Dec-15 19:00N 26°07' W 080°06'0 0.7
2017-Dec-15 18:30N 26°06' W 080°05'1 1.1
2017-Dec-15 18:00N 26°06' W 080°05'2 3.3
2017-Dec-15 17:30N 26°06' W 080°07'2 3.2
2017-Dec-15 17:00N 26°07' W 080°08'2 3.0
2017-Dec-15 16:30N 26°06' W 080°10'1 2.0
2017-Dec-15 16:01N 26°05' W 080°10'0 0.0
2017-Dec-15 15:30N 26°05' W 080°10'0 0.0
2017-Dec-15 15:00N 26°05' W 080°10'0 0.0
2017-Dec-15 14:30N 26°05' W 080°10'0 0.0
2017-Dec-15 14:00N 26°05' W 080°10'0 0.0
2017-Dec-15 13:30N 26°05' W 080°10'0 0.0
2017-Dec-15 13:00N 26°05' W 080°10'0 0.0
2017-Dec-15 12:30N 26°05' W 080°10'0 0.0
2017-Dec-15 12:00N 26°05' W 080°10'0 0.0
2017-Dec-15 11:30N 26°05' W 080°10'0 0.0
2017-Dec-15 11:00N 26°05' W 080°10'0 0.0
2017-Dec-15 10:27N 26°05' W 080°10'0 0.0
2017-Dec-15 10:00N 26°05' W 080°10'0 0.0
2017-Dec-15 09:30N 26°05' W 080°10'0 0.0
2017-Dec-15 09:00N 26°05' W 080°10'0 0.0
2017-Dec-15 08:30N 26°05' W 080°10'0 0.0
2017-Dec-15 08:00N 26°05' W 080°10'0 0.0
2017-Dec-15 07:30N 26°05' W 080°10'0 0.0
2017-Dec-15 06:59N 26°05' W 080°10'0 0.0
2017-Dec-15 06:30N 26°05' W 080°10'0 0.0
2017-Dec-15 05:59N 26°05' W 080°10'0 0.0
2017-Dec-15 05:29N 26°05' W 080°10'0 0.0
2017-Dec-15 04:59N 26°05' W 080°10'0 0.0
2017-Dec-15 04:29N 26°05' W 080°10'0 0.0
2017-Dec-15 03:59N 26°05' W 080°10'0 0.0
2017-Dec-15 02:29N 26°05' W 080°10'0 0.0
2017-Dec-15 00:59N 26°05' W 080°10'0 0.0
2017-Dec-15 00:29N 26°05' W 080°10'0 0.0
2017-Dec-14 18:29N 26°05' W 080°10'0 0.0
2017-Dec-14 17:59N 26°05' W 080°10'0 0.0
2017-Dec-14 17:29N 26°05' W 080°10'0 0.0
2017-Dec-14 16:59N 26°05' W 080°10'0 0.0
2017-Dec-14 16:29N 26°05' W 080°10'0 0.0
2017-Dec-14 15:59N 26°05' W 080°10'0 0.0
2017-Dec-14 14:59N 26°05' W 080°10'0 0.0
2017-Dec-14 14:29N 26°05' W 080°10'0 0.0
2017-Dec-14 13:59N 26°05' W 080°10'0 0.0
2017-Dec-14 13:29N 26°05' W 080°10'0 0.0
2017-Dec-14 12:59N 26°05' W 080°10'0 0.0
2017-Dec-14 12:17N 26°05' W 080°10'0 0.0
2017-Dec-14 11:59N 26°05' W 080°10'0 0.0
2017-Dec-14 11:29N 26°05' W 080°10'0 0.0
2017-Dec-14 10:59N 26°05' W 080°10'0 0.0
2017-Dec-14 10:29N 26°05' W 080°10'0 0.0
2017-Dec-14 09:59N 26°05' W 080°10'0 0.0
2017-Dec-14 09:29N 26°05' W 080°10'0 0.0
2017-Dec-14 08:59N 26°05' W 080°10'0 0.0
2017-Dec-14 08:29N 26°05' W 080°10'0 0.0
2017-Dec-14 07:59N 26°05' W 080°10'0 0.0
2017-Dec-14 07:29N 26°05' W 080°10'0 0.0
2017-Dec-14 06:50N 26°05' W 080°10'0 0.0
2017-Dec-14 06:29N 26°05' W 080°10'0 0.0
2017-Dec-14 05:50N 26°05' W 080°10'0 0.0
2017-Dec-14 05:20N 26°05' W 080°10'0 0.0
2017-Dec-14 04:50N 26°05' W 080°10'0 0.0
2017-Dec-14 04:20N 26°05' W 080°10'0 0.0
2017-Dec-14 03:50N 26°05' W 080°10'0 0.0
2017-Dec-14 03:23N 26°05' W 080°10'0 0.0
2017-Dec-14 02:53N 26°05' W 080°10'0 0.0
2017-Dec-14 02:23N 26°05' W 080°10'0 0.0
2017-Dec-14 01:53N 26°05' W 080°10'0 0.0
2017-Dec-14 01:23N 26°05' W 080°10'0 0.0
2017-Dec-14 00:53N 26°05' W 080°10'0 0.0
2017-Dec-14 00:26N 26°05' W 080°10'0 0.0
2017-Dec-13 23:56N 26°05' W 080°10'0 0.0
2017-Dec-13 23:26N 26°05' W 080°10'0 0.0
2017-Dec-13 22:56N 26°05' W 080°10'0 0.0
2017-Dec-13 22:26N 26°05' W 080°10'0 0.0
2017-Dec-13 21:56N 26°05' W 080°10'0 0.0
2017-Dec-13 21:22N 26°05' W 080°10'0 0.0
2017-Dec-13 20:55N 26°05' W 080°10'0 0.0
2017-Dec-13 20:25N 26°05' W 080°10'0 0.0
2017-Dec-13 19:55N 26°05' W 080°10'0 0.0
2017-Dec-13 19:25N 26°05' W 080°10'0 0.0
2017-Dec-13 18:55N 26°05' W 080°10'0 0.0
2017-Dec-13 18:25N 26°05' W 080°10'0 0.0
2017-Dec-13 17:55N 26°05' W 080°10'0 0.0
2017-Dec-13 17:25N 26°05' W 080°10'0 0.0
2017-Dec-13 16:55N 26°05' W 080°10'0 0.0
2017-Dec-13 16:28N 26°05' W 080°10'0 0.0
2017-Dec-13 15:58N 26°05' W 080°10'0 0.0
2017-Dec-13 15:28N 26°05' W 080°10'0 0.0
2017-Dec-13 14:58N 26°05' W 080°10'0 0.0
2017-Dec-13 14:28N 26°05' W 080°10'0 0.0
2017-Dec-13 13:58N 26°05' W 080°10'0 0.0
2017-Dec-13 13:28N 26°05' W 080°10'0 0.0
2017-Dec-13 12:58N 26°05' W 080°10'0 0.0
2017-Dec-13 12:25N 26°05' W 080°10'0 0.0
2017-Dec-13 11:58N 26°05' W 080°10'0 0.0
2017-Dec-13 11:16N 26°05' W 080°10'0 0.0
2017-Dec-13 10:58N 26°05' W 080°10'0 0.0
2017-Dec-13 10:28N 26°05' W 080°10'0 0.0
2017-Dec-13 09:58N 26°05' W 080°10'0 0.0
2017-Dec-13 09:28N 26°05' W 080°10'0 0.0
2017-Dec-13 08:58N 26°05' W 080°10'0 0.0
2017-Dec-13 08:28N 26°05' W 080°10'0 0.0
2017-Dec-13 07:58N 26°05' W 080°10'0 0.0
2017-Dec-13 07:28N 26°05' W 080°10'0 0.0
2017-Dec-13 06:58N 26°05' W 080°10'0 0.0
2017-Dec-13 06:28N 26°05' W 080°10'0 0.0
2017-Dec-13 05:58N 26°05' W 080°10'0 0.0
2017-Dec-13 05:28N 26°05' W 080°10'0 0.0
2017-Dec-13 04:58N 26°05' W 080°10'0 0.0
2017-Dec-13 04:19N 26°05' W 080°10'0 0.0
2017-Dec-13 03:58N 26°05' W 080°10'0 0.0
2017-Dec-13 03:28N 26°05' W 080°10'0 0.0
2017-Dec-13 02:58N 26°05' W 080°10'0 0.0
2017-Dec-13 02:19N 26°05' W 080°10'0 0.0
2017-Dec-13 01:49N 26°05' W 080°10'0 0.0
2017-Dec-13 01:07N 26°05' W 080°10'0 0.0
2017-Dec-13 00:49N 26°05' W 080°10'0 0.0
2017-Dec-13 00:19N 26°05' W 080°10'0 0.0
2017-Dec-12 23:52N 26°05' W 080°10'0 0.0
2017-Dec-12 23:22N 26°05' W 080°10'0 0.0
2017-Dec-12 22:55N 26°05' W 080°10'0 0.0
2017-Dec-12 22:25N 26°05' W 080°10'0 0.0
2017-Dec-12 21:55N 26°05' W 080°10'0 0.0
2017-Dec-12 21:25N 26°05' W 080°10'0 0.0
2017-Dec-12 20:55N 26°05' W 080°10'0 0.0
2017-Dec-12 20:25N 26°05' W 080°10'0 0.0
2017-Dec-12 19:55N 26°05' W 080°10'0 0.0
2017-Dec-12 19:22N 26°05' W 080°10'0 0.0
2017-Dec-12 18:55N 26°05' W 080°10'0 0.0
2017-Dec-12 18:25N 26°05' W 080°10'0 0.0
2017-Dec-12 17:55N 26°05' W 080°10'0 0.0
2017-Dec-12 17:25N 26°05' W 080°10'0 0.0
2017-Dec-12 16:55N 26°05' W 080°10'0 0.0
2017-Dec-12 16:25N 26°05' W 080°10'0 0.0
2017-Dec-12 15:55N 26°05' W 080°10'0 0.0
2017-Dec-12 15:25N 26°05' W 080°10'0 0.0
2017-Dec-12 14:55N 26°05' W 080°10'0 0.0
2017-Dec-12 14:25N 26°05' W 080°10'0 0.0
2017-Dec-12 13:55N 26°05' W 080°10'0 0.0
2017-Dec-12 13:27N 26°05' W 080°10'0 0.0
2017-Dec-12 12:57N 26°05' W 080°10'0 0.0
2017-Dec-12 12:27N 26°05' W 080°10'0 0.0
2017-Dec-12 12:00N 26°05' W 080°10'0 0.0
2017-Dec-12 11:30N 26°05' W 080°10'0 0.0
2017-Dec-12 11:00N 26°05' W 080°10'0 0.0
2017-Dec-12 10:30N 26°05' W 080°10'0 0.0
2017-Dec-12 10:00N 26°05' W 080°10'0 0.0
2017-Dec-12 09:27N 26°05' W 080°10'0 0.0
2017-Dec-12 09:00N 26°05' W 080°10'0 0.0
2017-Dec-12 08:30N 26°05' W 080°10'0 0.0
2017-Dec-12 08:00N 26°05' W 080°10'0 0.0
2017-Dec-12 07:30N 26°05' W 080°10'0 0.0
2017-Dec-12 07:00N 26°05' W 080°10'0 0.0
2017-Dec-12 06:30N 26°05' W 080°10'0 0.0
2017-Dec-12 06:00N 26°05' W 080°10'0 0.0
2017-Dec-12 05:27N 26°05' W 080°10'0 0.0
2017-Dec-12 05:00N 26°05' W 080°10'0 0.0
2017-Dec-12 04:30N 26°05' W 080°10'0 0.0
2017-Dec-12 04:00N 26°05' W 080°10'0 0.0
2017-Dec-12 03:30N 26°05' W 080°10'0 0.0
2017-Dec-12 03:00N 26°05' W 080°10'0 0.0
2017-Dec-12 02:30N 26°05' W 080°10'0 0.0
2017-Dec-12 02:00N 26°05' W 080°10'0 0.0
2017-Dec-12 01:30N 26°05' W 080°10'0 0.0
2017-Dec-12 01:00N 26°05' W 080°10'0 0.0
2017-Dec-12 00:30N 26°05' W 080°10'0 0.0
2017-Dec-12 00:00N 26°05' W 080°10'0 0.0
2017-Dec-11 23:30N 26°05' W 080°10'0 0.0
2017-Dec-11 22:45N 26°05' W 080°10'0 0.0
2017-Dec-11 22:18N 26°05' W 080°10'0 0.0
2017-Dec-11 21:48N 26°05' W 080°10'0 0.0
2017-Dec-11 21:18N 26°05' W 080°10'0 0.0
2017-Dec-11 20:48N 26°05' W 080°10'0 0.0
2017-Dec-11 20:24N 26°05' W 080°10'0 0.0
2017-Dec-11 19:54N 26°05' W 080°10'0 0.0
2017-Dec-11 19:24N 26°05' W 080°10'0 0.0
2017-Dec-11 18:54N 26°05' W 080°10'0 0.0
2017-Dec-11 15:24N 26°05' W 080°10'0 0.0
2017-Dec-11 14:54N 26°05' W 080°10'0 0.0
2017-Dec-11 14:24N 26°05' W 080°10'0 0.0
2017-Dec-11 13:54N 26°05' W 080°10'0 0.0
2017-Dec-11 13:21N 26°05' W 080°10'0 0.0
2017-Dec-11 12:51N 26°05' W 080°10'0 0.0
2017-Dec-11 12:24N 26°05' W 080°10'0 0.0
2017-Dec-11 11:54N 26°05' W 080°10'0 0.0
2017-Dec-11 11:24N 26°05' W 080°10'0 0.0
2017-Dec-11 10:54N 26°05' W 080°10'0 0.0
2017-Dec-11 10:24N 26°05' W 080°10'0 0.0
2017-Dec-11 10:00N 26°05' W 080°10'0 0.0
2017-Dec-11 09:30N 26°05' W 080°10'0 0.0
2017-Dec-11 09:00N 26°05' W 080°10'0 0.0
2017-Dec-11 08:30N 26°05' W 080°10'0 0.0
2017-Dec-11 07:56N 26°05' W 080°10'0 0.0
2017-Dec-11 07:26N 26°05' W 080°10'0 0.0
2017-Dec-11 07:00N 26°05' W 080°10'0 0.0
2017-Dec-11 06:30N 26°05' W 080°10'0 0.0
2017-Dec-11 06:00N 26°05' W 080°10'0 0.0
2017-Dec-11 05:30N 26°05' W 080°10'0 0.0
2017-Dec-11 04:56N 26°05' W 080°10'0 0.0
2017-Dec-11 04:30N 26°05' W 080°10'0 0.0
2017-Dec-11 04:00N 26°05' W 080°10'0 0.0
2017-Dec-11 03:29N 26°05' W 080°10'0 0.0
2017-Dec-11 02:56N 26°05' W 080°10'0 0.0
2017-Dec-11 02:29N 26°05' W 080°10'0 0.0
2017-Dec-11 01:59N 26°05' W 080°10'0 0.0
2017-Dec-11 01:29N 26°05' W 080°10'0 0.0
2017-Dec-11 00:59N 26°05' W 080°10'0 0.0
2017-Dec-11 00:29N 26°05' W 080°10'0 0.0
2017-Dec-10 23:59N 26°05' W 080°10'0 0.0
2017-Dec-10 23:29N 26°05' W 080°10'0 0.0
2017-Dec-10 22:05N 26°05' W 080°10'0 0.1
2017-Dec-10 21:59N 26°05' W 080°10'0 0.0
2017-Dec-10 21:26N 26°05' W 080°10'0 0.0
2017-Dec-10 20:56N 26°05' W 080°10'0 0.0
2017-Dec-10 20:17N 26°05' W 080°10'0 0.0
2017-Dec-10 19:47N 26°05' W 080°10'0 0.0
2017-Dec-10 19:17N 26°05' W 080°10'0 0.0
2017-Dec-10 18:47N 26°05' W 080°10'0 0.0
2017-Dec-10 18:17N 26°05' W 080°10'0 0.0
2017-Dec-10 17:53N 26°05' W 080°10'0 0.0
2017-Dec-10 17:23N 26°05' W 080°10'0 0.0
2017-Dec-10 16:53N 26°05' W 080°10'0 0.0
2017-Dec-10 16:23N 26°05' W 080°10'0 0.0
2017-Dec-10 15:53N 26°05' W 080°10'0 0.0
2017-Dec-10 15:23N 26°05' W 080°10'0 0.0
2017-Dec-10 14:50N 26°05' W 080°10'0 0.0
2017-Dec-10 14:23N 26°05' W 080°10'0 0.0
2017-Dec-10 13:53N 26°05' W 080°10'0 0.0
2017-Dec-10 13:23N 26°05' W 080°10'0 0.0
2017-Dec-10 12:53N 26°05' W 080°10'0 0.0
2017-Dec-10 12:23N 26°05' W 080°10'0 0.0
2017-Dec-10 11:53N 26°05' W 080°10'0 0.0
2017-Dec-10 11:23N 26°05' W 080°10'0 0.0
2017-Dec-10 10:53N 26°05' W 080°10'0 0.0
2017-Dec-10 10:23N 26°05' W 080°10'0 0.0
2017-Dec-10 09:53N 26°05' W 080°10'0 0.0
2017-Dec-10 09:20N 26°05' W 080°10'0 0.0
2017-Dec-10 08:53N 26°05' W 080°10'0 0.0
2017-Dec-10 08:11N 26°05' W 080°10'0 0.0
2017-Dec-10 07:59N 26°05' W 080°10'0 0.0
2017-Dec-10 07:29N 26°05' W 080°10'0 0.0
2017-Dec-10 06:59N 26°05' W 080°10'0 0.0
2017-Dec-10 06:29N 26°05' W 080°10'0 0.0
2017-Dec-10 05:59N 26°05' W 080°10'0 0.0
2017-Dec-10 05:29N 26°05' W 080°10'0 0.0
2017-Dec-10 04:59N 26°05' W 080°10'0 0.0
2017-Dec-10 04:29N 26°05' W 080°10'0 0.0
2017-Dec-10 03:59N 26°05' W 080°10'0 0.0
2017-Dec-10 03:29N 26°05' W 080°10'0 0.0
2017-Dec-10 02:55N 26°05' W 080°10'0 0.0
2017-Dec-10 02:29N 26°05' W 080°10'0 0.0
2017-Dec-10 01:59N 26°05' W 080°10'0 0.0
2017-Dec-10 01:29N 26°05' W 080°10'0 0.0
2017-Dec-10 00:59N 26°05' W 080°10'0 0.0
2017-Dec-10 00:29N 26°05' W 080°10'0 0.0
2017-Dec-09 23:59N 26°05' W 080°10'0 0.0
2017-Dec-09 23:29N 26°05' W 080°10'0 0.0
2017-Dec-09 22:47N 26°05' W 080°10'0 0.0
2017-Dec-09 22:29N 26°05' W 080°10'0 0.0
2017-Dec-09 21:59N 26°05' W 080°10'0 0.0
2017-Dec-09 21:29N 26°05' W 080°10'0 0.0
2017-Dec-09 20:59N 26°05' W 080°10'0 0.0
2017-Dec-09 20:29N 26°05' W 080°10'0 0.0
2017-Dec-09 19:55N 26°05' W 080°10'0 0.0
2017-Dec-09 19:29N 26°05' W 080°10'0 0.0
2017-Dec-09 18:55N 26°05' W 080°10'0 0.0
2017-Dec-09 18:16N 26°05' W 080°10'0 0.0
2017-Dec-09 17:55N 26°05' W 080°10'0 0.0
2017-Dec-09 17:25N 26°05' W 080°10'0 0.0
2017-Dec-09 16:55N 26°05' W 080°10'0 0.0
2017-Dec-09 16:25N 26°05' W 080°10'0 0.0
2017-Dec-09 15:52N 26°05' W 080°10'0 0.0
2017-Dec-09 15:22N 26°05' W 080°10'0 0.0
2017-Dec-09 14:52N 26°05' W 080°10'0 0.0
2017-Dec-09 14:22N 26°05' W 080°10'0 0.0
2017-Dec-09 13:52N 26°05' W 080°10'0 0.0
2017-Dec-09 13:22N 26°05' W 080°10'0 0.0
2017-Dec-09 12:52N 26°05' W 080°10'0 0.0
2017-Dec-09 12:22N 26°05' W 080°10'0 0.0
2017-Dec-09 11:49N 26°05' W 080°10'0 0.0
2017-Dec-09 11:22N 26°05' W 080°10'0 0.0
2017-Dec-09 10:52N 26°05' W 080°10'0 0.0
2017-Dec-09 10:22N 26°05' W 080°10'0 0.0
2017-Dec-09 09:49N 26°05' W 080°10'0 0.0
2017-Dec-09 09:19N 26°05' W 080°10'0 0.0
2017-Dec-09 08:52N 26°05' W 080°10'0 0.0
2017-Dec-09 08:22N 26°05' W 080°10'0 0.0
2017-Dec-09 07:52N 26°05' W 080°10'0 0.0
2017-Dec-09 07:22N 26°05' W 080°10'0 0.0
2017-Dec-09 06:52N 26°05' W 080°10'0 0.0
2017-Dec-09 06:22N 26°05' W 080°10'0 0.0
2017-Dec-09 05:58N 26°05' W 080°10'0 0.0
2017-Dec-09 05:28N 26°05' W 080°10'0 0.0
2017-Dec-09 04:58N 26°05' W 080°10'0 0.0
2017-Dec-09 04:28N 26°05' W 080°10'0 0.0
2017-Dec-09 03:58N 26°05' W 080°10'0 0.0
2017-Dec-09 03:28N 26°05' W 080°10'0 0.0
2017-Dec-09 02:58N 26°05' W 080°10'0 0.0
2017-Dec-09 02:28N 26°05' W 080°10'0 0.0
2017-Dec-09 01:58N 26°05' W 080°10'0 0.0
2017-Dec-09 01:28N 26°05' W 080°10'0 0.0
2017-Dec-09 00:58N 26°05' W 080°10'0 0.0
2017-Dec-09 00:28N 26°05' W 080°10'0 0.0
2017-Dec-08 23:58N 26°05' W 080°10'0 0.0
2017-Dec-08 23:28N 26°05' W 080°10'0 0.0
2017-Dec-08 22:58N 26°05' W 080°10'0 0.0
2017-Dec-08 22:28N 26°05' W 080°10'0 0.0
2017-Dec-08 21:58N 26°05' W 080°10'0 0.0
2017-Dec-08 21:28N 26°05' W 080°10'0 0.0
2017-Dec-08 20:46N 26°05' W 080°10'0 0.0
2017-Dec-08 20:28N 26°05' W 080°10'0 0.0
2017-Dec-08 19:58N 26°05' W 080°10'0 0.0
2017-Dec-08 19:28N 26°05' W 080°10'0 0.0
2017-Dec-08 18:58N 26°05' W 080°10'0 0.0
2017-Dec-08 18:28N 26°05' W 080°10'0 0.0
2017-Dec-08 17:58N 26°05' W 080°10'0 0.0
2017-Dec-08 17:28N 26°05' W 080°10'0 0.0
2017-Dec-08 16:54N 26°05' W 080°10'0 0.0
2017-Dec-08 16:24N 26°05' W 080°10'0 0.0
2017-Dec-08 15:54N 26°05' W 080°10'0 0.0
2017-Dec-08 15:24N 26°05' W 080°10'0 0.0
2017-Dec-08 14:54N 26°05' W 080°10'0 0.0
2017-Dec-08 14:30N 26°05' W 080°10'0 0.0
2017-Dec-08 14:00N 26°05' W 080°10'0 0.0
2017-Dec-08 13:30N 26°05' W 080°10'0 0.0
2017-Dec-08 13:00N 26°05' W 080°10'0 0.0
2017-Dec-08 12:30N 26°05' W 080°10'0 0.0
2017-Dec-08 12:00N 26°05' W 080°10'0 0.0
2017-Dec-08 11:30N 26°05' W 080°10'0 0.0
2017-Dec-08 11:00N 26°05' W 080°10'0 0.0
2017-Dec-08 10:30N 26°05' W 080°10'0 0.0
2017-Dec-08 10:00N 26°05' W 080°10'0 0.0
2017-Dec-08 09:30N 26°05' W 080°10'0 0.0
2017-Dec-08 09:00N 26°05' W 080°10'0 0.0
2017-Dec-08 08:30N 26°05' W 080°10'0 0.0
2017-Dec-08 08:00N 26°05' W 080°10'0 0.0
2017-Dec-08 07:30N 26°05' W 080°10'0 0.0
2017-Dec-08 06:51N 26°05' W 080°10'0 0.0
2017-Dec-08 06:30N 26°05' W 080°10'0 0.0
2017-Dec-08 05:51N 26°05' W 080°10'0 0.0
2017-Dec-08 05:30N 26°05' W 080°10'0 0.0
2017-Dec-08 05:00N 26°05' W 080°10'0 0.0
2017-Dec-08 04:30N 26°05' W 080°10'0 0.0
2017-Dec-08 04:00N 26°05' W 080°10'0 0.0
2017-Dec-08 03:30N 26°05' W 080°10'0 0.0
2017-Dec-08 03:00N 26°05' W 080°10'0 0.0
2017-Dec-08 02:30N 26°05' W 080°10'0 0.0
2017-Dec-08 02:00N 26°05' W 080°10'0 0.0
2017-Dec-08 01:30N 26°05' W 080°10'0 0.0
2017-Dec-08 00:57N 26°05' W 080°10'0 0.0
2017-Dec-08 00:27N 26°05' W 080°10'0 0.0
2017-Dec-07 23:57N 26°05' W 080°10'0 0.0
2017-Dec-07 23:27N 26°05' W 080°10'0 0.0
2017-Dec-07 22:57N 26°05' W 080°10'0 0.0
2017-Dec-07 22:27N 26°05' W 080°10'0 0.0
2017-Dec-07 21:57N 26°05' W 080°10'0 0.0
2017-Dec-07 21:27N 26°05' W 080°10'0 0.0
2017-Dec-07 20:57N 26°05' W 080°10'0 0.0
2017-Dec-07 20:27N 26°05' W 080°10'0 0.0
2017-Dec-07 19:57N 26°05' W 080°10'0 0.0
2017-Dec-07 19:27N 26°05' W 080°10'0 0.0
2017-Dec-07 18:54N 26°05' W 080°10'0 0.0
2017-Dec-07 18:27N 26°05' W 080°10'0 0.0
2017-Dec-07 17:57N 26°05' W 080°10'0 0.0
2017-Dec-07 17:27N 26°05' W 080°10'0 0.0
2017-Dec-07 16:57N 26°05' W 080°10'0 0.0
2017-Dec-07 16:27N 26°05' W 080°10'0 0.0
2017-Dec-07 15:57N 26°05' W 080°10'0 0.0
2017-Dec-07 15:27N 26°05' W 080°10'0 0.0
2017-Dec-07 14:57N 26°05' W 080°10'0 0.0
2017-Dec-07 14:27N 26°05' W 080°10'0 0.0
2017-Dec-07 13:57N 26°05' W 080°10'0 0.0
2017-Dec-07 13:27N 26°05' W 080°10'0 0.0
2017-Dec-07 12:57N 26°05' W 080°10'0 0.0
2017-Dec-07 12:23N 26°05' W 080°10'0 0.0
2017-Dec-07 11:53N 26°05' W 080°10'0 0.0
2017-Dec-07 11:23N 26°05' W 080°10'0 0.0
2017-Dec-07 10:59N 26°05' W 080°10'0 0.0
2017-Dec-07 10:29N 26°05' W 080°10'0 0.0
2017-Dec-07 09:59N 26°05' W 080°10'0 0.0
2017-Dec-07 09:29N 26°05' W 080°10'0 0.0
2017-Dec-07 08:53N 26°05' W 080°10'0 0.0
2017-Dec-07 08:29N 26°05' W 080°10'0 0.0
2017-Dec-07 07:59N 26°05' W 080°10'0 0.0
2017-Dec-07 07:29N 26°05' W 080°10'0 0.0
2017-Dec-07 06:59N 26°05' W 080°10'0 0.0
2017-Dec-07 06:21N 26°05' W 080°10'0 0.0
2017-Dec-07 05:59N 26°05' W 080°10'0 0.0
2017-Dec-07 05:29N 26°05' W 080°10'0 0.0
2017-Dec-07 04:59N 26°05' W 080°10'0 0.0
2017-Dec-07 04:20N 26°05' W 080°10'0 0.0
2017-Dec-07 03:59N 26°05' W 080°10'0 0.0
2017-Dec-07 03:29N 26°05' W 080°10'0 0.0
2017-Dec-07 02:59N 26°05' W 080°10'0 0.0
2017-Dec-07 02:20N 26°05' W 080°10'0 0.0
2017-Dec-07 01:59N 26°05' W 080°10'0 0.0
2017-Dec-07 01:29N 26°05' W 080°10'0 0.0
2017-Dec-07 00:59N 26°05' W 080°10'0 0.0
2017-Dec-07 00:29N 26°05' W 080°10'0 0.0
2017-Dec-06 23:59N 26°05' W 080°10'0 0.0
2017-Dec-06 23:29N 26°05' W 080°10'0 0.0
2017-Dec-06 22:59N 26°05' W 080°10'0 0.0
2017-Dec-06 22:29N 26°05' W 080°10'0 0.0
2017-Dec-06 21:56N 26°05' W 080°10'0 0.0
2017-Dec-06 21:26N 26°05' W 080°10'0 0.0
2017-Dec-06 20:56N 26°05' W 080°10'  
Track history (hours):
 
Tides and Currents Weather Stations Pressure Air Temp Water Temp Dewpoint Dewpoint Depression Visibility Wind Speed Wind Dir Waves Ship Positions

My.unforgettable

Last reported at 2017-Dec-16 08:50 UTC. Time now 2017-Dec-18 20:15 UTC.
Position N 26°06' W 079°31'.

Length 42 m; draft 2.2 m.

Type: Pleasure craft. MMSI: 319823000.

Date/timePositionNaut miles runAvg speedWind from/ knotsBaromVisibWave heightAir tempDewpointWater temp
2017-Dec-16 08:50N 26°06' W 079°31'3 9.6
2017-Dec-16 08:30N 26°06' W 079°34'5 9.6
2017-Dec-16 08:00N 26°05' W 079°39'4 8.6
2017-Dec-16 07:30N 26°06' W 079°44'5 9.1
2017-Dec-16 07:00N 26°06' W 079°49'5 9.2
2017-Dec-16 06:30N 26°06' W 079°54'5 9.3
2017-Dec-16 06:00N 26°06' W 079°59'5 9.2
2017-Dec-16 05:30N 26°06' W 080°05'1 2.7
2017-Dec-16 04:58N 26°07' W 080°05'0 0.0
2017-Dec-16 04:28N 26°07' W 080°05'0 0.0
2017-Dec-16 03:52N 26°07' W 080°05'0 0.0
2017-Dec-16 03:30N 26°07' W 080°05'0 0.0
2017-Dec-16 03:00N 26°07' W 080°05'0 0.0
2017-Dec-16 02:31N 26°07' W 080°05'0 0.0
2017-Dec-16 02:01N 26°07' W 080°05'0 0.0
2017-Dec-16 01:30N 26°07' W 080°05'0 0.0
2017-Dec-16 01:01N 26°07' W 080°05'0 0.0
2017-Dec-16 00:30N 26°07' W 080°05'0 0.2
2017-Dec-16 00:00N 26°07' W 080°05'0 0.9
2017-Dec-15 23:30N 26°06' W 080°05'0 0.0
2017-Dec-15 23:01N 26°06' W 080°05'0 0.7
2017-Dec-15 22:30N 26°06' W 080°05'2 3.1
2017-Dec-15 22:00N 26°06' W 080°07'0 0.7
2017-Dec-15 21:30N 26°06' W 080°07'0 0.2
2017-Dec-15 21:00N 26°06' W 080°07'2 3.3
2017-Dec-15 20:30N 26°06' W 080°05'2 4.3
2017-Dec-15 20:00N 26°08' W 080°05'1 1.7
2017-Dec-15 19:30N 26°07' W 080°05'0 1.0
2017-Dec-15 19:00N 26°07' W 080°06'0 0.7
2017-Dec-15 18:30N 26°06' W 080°05'1 1.1
2017-Dec-15 18:00N 26°06' W 080°05'2 3.3
2017-Dec-15 17:30N 26°06' W 080°07'2 3.2
2017-Dec-15 17:00N 26°07' W 080°08'2 3.0
2017-Dec-15 16:30N 26°06' W 080°10'1 2.0
2017-Dec-15 16:01N 26°05' W 080°10'0 0.0
2017-Dec-15 15:30N 26°05' W 080°10'0 0.0
2017-Dec-15 15:00N 26°05' W 080°10'0 0.0
2017-Dec-15 14:30N 26°05' W 080°10'0 0.0
2017-Dec-15 14:00N 26°05' W 080°10'0 0.0
2017-Dec-15 13:30N 26°05' W 080°10'0 0.0
2017-Dec-15 13:00N 26°05' W 080°10'0 0.0
2017-Dec-15 12:30N 26°05' W 080°10'0 0.0
2017-Dec-15 12:00N 26°05' W 080°10'0 0.0
2017-Dec-15 11:30N 26°05' W 080°10'0 0.0
2017-Dec-15 11:00N 26°05' W 080°10'0 0.0
2017-Dec-15 10:27N 26°05' W 080°10'0 0.0
2017-Dec-15 10:00N 26°05' W 080°10'0 0.0
2017-Dec-15 09:30N 26°05' W 080°10'0 0.0
2017-Dec-15 09:00N 26°05' W 080°10'0 0.0
2017-Dec-15 08:30N 26°05' W 080°10'0 0.0
2017-Dec-15 08:00N 26°05' W 080°10'0 0.0
2017-Dec-15 07:30N 26°05' W 080°10'0 0.0
2017-Dec-15 06:59N 26°05' W 080°10'0 0.0
2017-Dec-15 06:30N 26°05' W 080°10'0 0.0
2017-Dec-15 05:59N 26°05' W 080°10'0 0.0
2017-Dec-15 05:29N 26°05' W 080°10'0 0.0
2017-Dec-15 04:59N 26°05' W 080°10'0 0.0
2017-Dec-15 04:29N 26°05' W 080°10'0 0.0
2017-Dec-15 03:59N 26°05' W 080°10'0 0.0
2017-Dec-15 02:29N 26°05' W 080°10'0 0.0
2017-Dec-15 00:59N 26°05' W 080°10'0 0.0
2017-Dec-15 00:29N 26°05' W 080°10'0 0.0
2017-Dec-14 18:29N 26°05' W 080°10'0 0.0
2017-Dec-14 17:59N 26°05' W 080°10'0 0.0
2017-Dec-14 17:29N 26°05' W 080°10'0 0.0
2017-Dec-14 16:59N 26°05' W 080°10'0 0.0
2017-Dec-14 16:29N 26°05' W 080°10'0 0.0
2017-Dec-14 15:59N 26°05' W 080°10'0 0.0
2017-Dec-14 14:59N 26°05' W 080°10'0 0.0
2017-Dec-14 14:29N 26°05' W 080°10'0 0.0
2017-Dec-14 13:59N 26°05' W 080°10'0 0.0
2017-Dec-14 13:29N 26°05' W 080°10'0 0.0
2017-Dec-14 12:59N 26°05' W 080°10'0 0.0
2017-Dec-14 12:17N 26°05' W 080°10'0 0.0
2017-Dec-14 11:59N 26°05' W 080°10'0 0.0
2017-Dec-14 11:29N 26°05' W 080°10'0 0.0
2017-Dec-14 10:59N 26°05' W 080°10'0 0.0
2017-Dec-14 10:29N 26°05' W 080°10'0 0.0
2017-Dec-14 09:59N 26°05' W 080°10'0 0.0
2017-Dec-14 09:29N 26°05' W 080°10'0 0.0
2017-Dec-14 08:59N 26°05' W 080°10'0 0.0
2017-Dec-14 08:29N 26°05' W 080°10'0 0.0
2017-Dec-14 07:59N 26°05' W 080°10'0 0.0
2017-Dec-14 07:29N 26°05' W 080°10'0 0.0
2017-Dec-14 06:50N 26°05' W 080°10'0 0.0
2017-Dec-14 06:29N 26°05' W 080°10'0 0.0
2017-Dec-14 05:50N 26°05' W 080°10'0 0.0
2017-Dec-14 05:20N 26°05' W 080°10'0 0.0
2017-Dec-14 04:50N 26°05' W 080°10'0 0.0
2017-Dec-14 04:20N 26°05' W 080°10'0 0.0
2017-Dec-14 03:50N 26°05' W 080°10'0 0.0
2017-Dec-14 03:23N 26°05' W 080°10'0 0.0
2017-Dec-14 02:53N 26°05' W 080°10'0 0.0
2017-Dec-14 02:23N 26°05' W 080°10'0 0.0
2017-Dec-14 01:53N 26°05' W 080°10'0 0.0
2017-Dec-14 01:23N 26°05' W 080°10'0 0.0
2017-Dec-14 00:53N 26°05' W 080°10'0 0.0
2017-Dec-14 00:26N 26°05' W 080°10'0 0.0
2017-Dec-13 23:56N 26°05' W 080°10'0 0.0
2017-Dec-13 23:26N 26°05' W 080°10'0 0.0
2017-Dec-13 22:56N 26°05' W 080°10'0 0.0
2017-Dec-13 22:26N 26°05' W 080°10'0 0.0
2017-Dec-13 21:56N 26°05' W 080°10'0 0.0
2017-Dec-13 21:22N 26°05' W 080°10'0 0.0
2017-Dec-13 20:55N 26°05' W 080°10'0 0.0
2017-Dec-13 20:25N 26°05' W 080°10'0 0.0
2017-Dec-13 19:55N 26°05' W 080°10'0 0.0
2017-Dec-13 19:25N 26°05' W 080°10'0 0.0
2017-Dec-13 18:55N 26°05' W 080°10'0 0.0
2017-Dec-13 18:25N 26°05' W 080°10'0 0.0
2017-Dec-13 17:55N 26°05' W 080°10'0 0.0
2017-Dec-13 17:25N 26°05' W 080°10'0 0.0
2017-Dec-13 16:55N 26°05' W 080°10'0 0.0
2017-Dec-13 16:28N 26°05' W 080°10'0 0.0
2017-Dec-13 15:58N 26°05' W 080°10'0 0.0
2017-Dec-13 15:28N 26°05' W 080°10'0 0.0
2017-Dec-13 14:58N 26°05' W 080°10'0 0.0
2017-Dec-13 14:28N 26°05' W 080°10'0 0.0
2017-Dec-13 13:58N 26°05' W 080°10'0 0.0
2017-Dec-13 13:28N 26°05' W 080°10'0 0.0
2017-Dec-13 12:58N 26°05' W 080°10'0 0.0
2017-Dec-13 12:25N 26°05' W 080°10'0 0.0
2017-Dec-13 11:58N 26°05' W 080°10'0 0.0
2017-Dec-13 11:16N 26°05' W 080°10'0 0.0
2017-Dec-13 10:58N 26°05' W 080°10'0 0.0
2017-Dec-13 10:28N 26°05' W 080°10'0 0.0
2017-Dec-13 09:58N 26°05' W 080°10'0 0.0
2017-Dec-13 09:28N 26°05' W 080°10'0 0.0
2017-Dec-13 08:58N 26°05' W 080°10'0 0.0
2017-Dec-13 08:28N 26°05' W 080°10'0 0.0
2017-Dec-13 07:58N 26°05' W 080°10'0 0.0
2017-Dec-13 07:28N 26°05' W 080°10'0 0.0
2017-Dec-13 06:58N 26°05' W 080°10'0 0.0
2017-Dec-13 06:28N 26°05' W 080°10'0 0.0
2017-Dec-13 05:58N 26°05' W 080°10'0 0.0
2017-Dec-13 05:28N 26°05' W 080°10'0 0.0
2017-Dec-13 04:58N 26°05' W 080°10'0 0.0
2017-Dec-13 04:19N 26°05' W 080°10'0 0.0
2017-Dec-13 03:58N 26°05' W 080°10'0 0.0
2017-Dec-13 03:28N 26°05' W 080°10'0 0.0
2017-Dec-13 02:58N 26°05' W 080°10'0 0.0
2017-Dec-13 02:19N 26°05' W 080°10'0 0.0
2017-Dec-13 01:49N 26°05' W 080°10'0 0.0
2017-Dec-13 01:07N 26°05' W 080°10'0 0.0
2017-Dec-13 00:49N 26°05' W 080°10'0 0.0
2017-Dec-13 00:19N 26°05' W 080°10'0 0.0
2017-Dec-12 23:52N 26°05' W 080°10'0 0.0
2017-Dec-12 23:22N 26°05' W 080°10'0 0.0
2017-Dec-12 22:55N 26°05' W 080°10'0 0.0
2017-Dec-12 22:25N 26°05' W 080°10'0 0.0
2017-Dec-12 21:55N 26°05' W 080°10'0 0.0
2017-Dec-12 21:25N 26°05' W 080°10'0 0.0
2017-Dec-12 20:55N 26°05' W 080°10'0 0.0
2017-Dec-12 20:25N 26°05' W 080°10'0 0.0
2017-Dec-12 19:55N 26°05' W 080°10'0 0.0
2017-Dec-12 19:22N 26°05' W 080°10'0 0.0
2017-Dec-12 18:55N 26°05' W 080°10'0 0.0
2017-Dec-12 18:25N 26°05' W 080°10'0 0.0
2017-Dec-12 17:55N 26°05' W 080°10'0 0.0
2017-Dec-12 17:25N 26°05' W 080°10'0 0.0
2017-Dec-12 16:55N 26°05' W 080°10'0 0.0
2017-Dec-12 16:25N 26°05' W 080°10'0 0.0
2017-Dec-12 15:55N 26°05' W 080°10'0 0.0
2017-Dec-12 15:25N 26°05' W 080°10'0 0.0
2017-Dec-12 14:55N 26°05' W 080°10'0 0.0
2017-Dec-12 14:25N 26°05' W 080°10'0 0.0
2017-Dec-12 13:55N 26°05' W 080°10'0 0.0
2017-Dec-12 13:27N 26°05' W 080°10'0 0.0
2017-Dec-12 12:57N 26°05' W 080°10'0 0.0
2017-Dec-12 12:27N 26°05' W 080°10'0 0.0
2017-Dec-12 12:00N 26°05' W 080°10'0 0.0
2017-Dec-12 11:30N 26°05' W 080°10'0 0.0
2017-Dec-12 11:00N 26°05' W 080°10'0 0.0
2017-Dec-12 10:30N 26°05' W 080°10'0 0.0
2017-Dec-12 10:00N 26°05' W 080°10'0 0.0
2017-Dec-12 09:27N 26°05' W 080°10'0 0.0
2017-Dec-12 09:00N 26°05' W 080°10'0 0.0
2017-Dec-12 08:30N 26°05' W 080°10'0 0.0
2017-Dec-12 08:00N 26°05' W 080°10'0 0.0
2017-Dec-12 07:30N 26°05' W 080°10'0 0.0
2017-Dec-12 07:00N 26°05' W 080°10'0 0.0
2017-Dec-12 06:30N 26°05' W 080°10'0 0.0
2017-Dec-12 06:00N 26°05' W 080°10'0 0.0
2017-Dec-12 05:27N 26°05' W 080°10'0 0.0
2017-Dec-12 05:00N 26°05' W 080°10'0 0.0
2017-Dec-12 04:30N 26°05' W 080°10'0 0.0
2017-Dec-12 04:00N 26°05' W 080°10'0 0.0
2017-Dec-12 03:30N 26°05' W 080°10'0 0.0
2017-Dec-12 03:00N 26°05' W 080°10'0 0.0
2017-Dec-12 02:30N 26°05' W 080°10'0 0.0
2017-Dec-12 02:00N 26°05' W 080°10'0 0.0
2017-Dec-12 01:30N 26°05' W 080°10'0 0.0
2017-Dec-12 01:00N 26°05' W 080°10'0 0.0
2017-Dec-12 00:30N 26°05' W 080°10'0 0.0
2017-Dec-12 00:00N 26°05' W 080°10'0 0.0
2017-Dec-11 23:30N 26°05' W 080°10'0 0.0
2017-Dec-11 22:45N 26°05' W 080°10'0 0.0
2017-Dec-11 22:18N 26°05' W 080°10'0 0.0
2017-Dec-11 21:48N 26°05' W 080°10'0 0.0
2017-Dec-11 21:18N 26°05' W 080°10'0 0.0
2017-Dec-11 20:48N 26°05' W 080°10'0 0.0
2017-Dec-11 20:24N 26°05' W 080°10'0 0.0
2017-Dec-11 19:54N 26°05' W 080°10'0 0.0
2017-Dec-11 19:24N 26°05' W 080°10'0 0.0
2017-Dec-11 18:54N 26°05' W 080°10'0 0.0
2017-Dec-11 15:24N 26°05' W 080°10'0 0.0
2017-Dec-11 14:54N 26°05' W 080°10'0 0.0
2017-Dec-11 14:24N 26°05' W 080°10'0 0.0
2017-Dec-11 13:54N 26°05' W 080°10'0 0.0
2017-Dec-11 13:21N 26°05' W 080°10'0 0.0
2017-Dec-11 12:51N 26°05' W 080°10'0 0.0
2017-Dec-11 12:24N 26°05' W 080°10'0 0.0
2017-Dec-11 11:54N 26°05' W 080°10'0 0.0
2017-Dec-11 11:24N 26°05' W 080°10'0 0.0
2017-Dec-11 10:54N 26°05' W 080°10'0 0.0
2017-Dec-11 10:24N 26°05' W 080°10'0 0.0
2017-Dec-11 10:00N 26°05' W 080°10'0 0.0
2017-Dec-11 09:30N 26°05' W 080°10'0 0.0
2017-Dec-11 09:00N 26°05' W 080°10'0 0.0
2017-Dec-11 08:30N 26°05' W 080°10'0 0.0
2017-Dec-11 07:56N 26°05' W 080°10'0 0.0
2017-Dec-11 07:26N 26°05' W 080°10'0 0.0
2017-Dec-11 07:00N 26°05' W 080°10'0 0.0
2017-Dec-11 06:30N 26°05' W 080°10'0 0.0
2017-Dec-11 06:00N 26°05' W 080°10'0 0.0
2017-Dec-11 05:30N 26°05' W 080°10'0 0.0
2017-Dec-11 04:56N 26°05' W 080°10'0 0.0
2017-Dec-11 04:30N 26°05' W 080°10'0 0.0
2017-Dec-11 04:00N 26°05' W 080°10'0 0.0
2017-Dec-11 03:29N 26°05' W 080°10'0 0.0
2017-Dec-11 02:56N 26°05' W 080°10'0 0.0
2017-Dec-11 02:29N 26°05' W 080°10'0 0.0
2017-Dec-11 01:59N 26°05' W 080°10'0 0.0
2017-Dec-11 01:29N 26°05' W 080°10'0 0.0
2017-Dec-11 00:59N 26°05' W 080°10'0 0.0
2017-Dec-11 00:29N 26°05' W 080°10'0 0.0
2017-Dec-10 23:59N 26°05' W 080°10'0 0.0
2017-Dec-10 23:29N 26°05' W 080°10'0 0.0
2017-Dec-10 22:05N 26°05' W 080°10'0 0.1
2017-Dec-10 21:59N 26°05' W 080°10'0 0.0
2017-Dec-10 21:26N 26°05' W 080°10'0 0.0
2017-Dec-10 20:56N 26°05' W 080°10'0 0.0
2017-Dec-10 20:17N 26°05' W 080°10'0 0.0
2017-Dec-10 19:47N 26°05' W 080°10'0 0.0
2017-Dec-10 19:17N 26°05' W 080°10'0 0.0
2017-Dec-10 18:47N 26°05' W 080°10'0 0.0
2017-Dec-10 18:17N 26°05' W 080°10'0 0.0
2017-Dec-10 17:53N 26°05' W 080°10'0 0.0
2017-Dec-10 17:23N 26°05' W 080°10'0 0.0
2017-Dec-10 16:53N 26°05' W 080°10'0 0.0
2017-Dec-10 16:23N 26°05' W 080°10'0 0.0
2017-Dec-10 15:53N 26°05' W 080°10'0 0.0
2017-Dec-10 15:23N 26°05' W 080°10'0 0.0
2017-Dec-10 14:50N 26°05' W 080°10'0 0.0
2017-Dec-10 14:23N 26°05' W 080°10'0 0.0
2017-Dec-10 13:53N 26°05' W 080°10'0 0.0
2017-Dec-10 13:23N 26°05' W 080°10'0 0.0
2017-Dec-10 12:53N 26°05' W 080°10'0 0.0
2017-Dec-10 12:23N 26°05' W 080°10'0 0.0
2017-Dec-10 11:53N 26°05' W 080°10'0 0.0
2017-Dec-10 11:23N 26°05' W 080°10'0 0.0
2017-Dec-10 10:53N 26°05' W 080°10'0 0.0
2017-Dec-10 10:23N 26°05' W 080°10'0 0.0
2017-Dec-10 09:53N 26°05' W 080°10'0 0.0
2017-Dec-10 09:20N 26°05' W 080°10'0 0.0
2017-Dec-10 08:53N 26°05' W 080°10'0 0.0
2017-Dec-10 08:11N 26°05' W 080°10'0 0.0
2017-Dec-10 07:59N 26°05' W 080°10'0 0.0
2017-Dec-10 07:29N 26°05' W 080°10'0 0.0
2017-Dec-10 06:59N 26°05' W 080°10'0 0.0
2017-Dec-10 06:29N 26°05' W 080°10'0 0.0
2017-Dec-10 05:59N 26°05' W 080°10'0 0.0
2017-Dec-10 05:29N 26°05' W 080°10'0 0.0
2017-Dec-10 04:59N 26°05' W 080°10'0 0.0
2017-Dec-10 04:29N 26°05' W 080°10'0 0.0
2017-Dec-10 03:59N 26°05' W 080°10'0 0.0
2017-Dec-10 03:29N 26°05' W 080°10'0 0.0
2017-Dec-10 02:55N 26°05' W 080°10'0 0.0
2017-Dec-10 02:29N 26°05' W 080°10'0 0.0
2017-Dec-10 01:59N 26°05' W 080°10'0 0.0
2017-Dec-10 01:29N 26°05' W 080°10'0 0.0
2017-Dec-10 00:59N 26°05' W 080°10'0 0.0
2017-Dec-10 00:29N 26°05' W 080°10'0 0.0
2017-Dec-09 23:59N 26°05' W 080°10'0 0.0
2017-Dec-09 23:29N 26°05' W 080°10'0 0.0
2017-Dec-09 22:47N 26°05' W 080°10'0 0.0
2017-Dec-09 22:29N 26°05' W 080°10'0 0.0
2017-Dec-09 21:59N 26°05' W 080°10'0 0.0
2017-Dec-09 21:29N 26°05' W 080°10'0 0.0
2017-Dec-09 20:59N 26°05' W 080°10'0 0.0
2017-Dec-09 20:29N 26°05' W 080°10'0 0.0
2017-Dec-09 19:55N 26°05' W 080°10'0 0.0
2017-Dec-09 19:29N 26°05' W 080°10'0 0.0
2017-Dec-09 18:55N 26°05' W 080°10'0 0.0
2017-Dec-09 18:16N 26°05' W 080°10'0 0.0
2017-Dec-09 17:55N 26°05' W 080°10'0 0.0
2017-Dec-09 17:25N 26°05' W 080°10'0 0.0
2017-Dec-09 16:55N 26°05' W 080°10'0 0.0
2017-Dec-09 16:25N 26°05' W 080°10'0 0.0
2017-Dec-09 15:52N 26°05' W 080°10'0 0.0
2017-Dec-09 15:22N 26°05' W 080°10'0 0.0
2017-Dec-09 14:52N 26°05' W 080°10'0 0.0
2017-Dec-09 14:22N 26°05' W 080°10'0 0.0
2017-Dec-09 13:52N 26°05' W 080°10'0 0.0
2017-Dec-09 13:22N 26°05' W 080°10'0 0.0
2017-Dec-09 12:52N 26°05' W 080°10'0 0.0
2017-Dec-09 12:22N 26°05' W 080°10'0 0.0
2017-Dec-09 11:49N 26°05' W 080°10'0 0.0
2017-Dec-09 11:22N 26°05' W 080°10'0 0.0
2017-Dec-09 10:52N 26°05' W 080°10'0 0.0
2017-Dec-09 10:22N 26°05' W 080°10'0 0.0
2017-Dec-09 09:49N 26°05' W 080°10'0 0.0
2017-Dec-09 09:19N 26°05' W 080°10'0 0.0
2017-Dec-09 08:52N 26°05' W 080°10'0 0.0
2017-Dec-09 08:22N 26°05' W 080°10'0 0.0
2017-Dec-09 07:52N 26°05' W 080°10'0 0.0
2017-Dec-09 07:22N 26°05' W 080°10'0 0.0
2017-Dec-09 06:52N 26°05' W 080°10'0 0.0
2017-Dec-09 06:22N 26°05' W 080°10'0 0.0
2017-Dec-09 05:58N 26°05' W 080°10'0 0.0
2017-Dec-09 05:28N 26°05' W 080°10'0 0.0
2017-Dec-09 04:58N 26°05' W 080°10'0 0.0
2017-Dec-09 04:28N 26°05' W 080°10'0 0.0
2017-Dec-09 03:58N 26°05' W 080°10'0 0.0
2017-Dec-09 03:28N 26°05' W 080°10'0 0.0
2017-Dec-09 02:58N 26°05' W 080°10'0 0.0
2017-Dec-09 02:28N 26°05' W 080°10'0 0.0
2017-Dec-09 01:58N 26°05' W 080°10'0 0.0
2017-Dec-09 01:28N 26°05' W 080°10'0 0.0
2017-Dec-09 00:58N 26°05' W 080°10'0 0.0
2017-Dec-09 00:28N 26°05' W 080°10'0 0.0
2017-Dec-08 23:58N 26°05' W 080°10'0 0.0
2017-Dec-08 23:28N 26°05' W 080°10'0 0.0
2017-Dec-08 22:58N 26°05' W 080°10'0 0.0
2017-Dec-08 22:28N 26°05' W 080°10'0 0.0
2017-Dec-08 21:58N 26°05' W 080°10'0 0.0
2017-Dec-08 21:28N 26°05' W 080°10'0 0.0
2017-Dec-08 20:46N 26°05' W 080°10'0 0.0
2017-Dec-08 20:28N 26°05' W 080°10'0 0.0
2017-Dec-08 19:58N 26°05' W 080°10'0 0.0
2017-Dec-08 19:28N 26°05' W 080°10'0 0.0
2017-Dec-08 18:58N 26°05' W 080°10'0 0.0
2017-Dec-08 18:28N 26°05' W 080°10'0 0.0
2017-Dec-08 17:58N 26°05' W 080°10'0 0.0
2017-Dec-08 17:28N 26°05' W 080°10'0 0.0
2017-Dec-08 16:54N 26°05' W 080°10'0 0.0
2017-Dec-08 16:24N 26°05' W 080°10'0 0.0
2017-Dec-08 15:54N 26°05' W 080°10'0 0.0
2017-Dec-08 15:24N 26°05' W 080°10'0 0.0
2017-Dec-08 14:54N 26°05' W 080°10'0 0.0
2017-Dec-08 14:30N 26°05' W 080°10'0 0.0
2017-Dec-08 14:00N 26°05' W 080°10'0 0.0
2017-Dec-08 13:30N 26°05' W 080°10'0 0.0
2017-Dec-08 13:00N 26°05' W 080°10'0 0.0
2017-Dec-08 12:30N 26°05' W 080°10'0 0.0
2017-Dec-08 12:00N 26°05' W 080°10'0 0.0
2017-Dec-08 11:30N 26°05' W 080°10'0 0.0
2017-Dec-08 11:00N 26°05' W 080°10'0 0.0
2017-Dec-08 10:30N 26°05' W 080°10'0 0.0
2017-Dec-08 10:00N 26°05' W 080°10'0 0.0
2017-Dec-08 09:30N 26°05' W 080°10'0 0.0
2017-Dec-08 09:00N 26°05' W 080°10'0 0.0
2017-Dec-08 08:30N 26°05' W 080°10'0 0.0
2017-Dec-08 08:00N 26°05' W 080°10'0 0.0
2017-Dec-08 07:30N 26°05' W 080°10'0 0.0
2017-Dec-08 06:51N 26°05' W 080°10'0 0.0
2017-Dec-08 06:30N 26°05' W 080°10'0 0.0
2017-Dec-08 05:51N 26°05' W 080°10'0 0.0
2017-Dec-08 05:30N 26°05' W 080°10'0 0.0
2017-Dec-08 05:00N 26°05' W 080°10'0 0.0
2017-Dec-08 04:30N 26°05' W 080°10'0 0.0
2017-Dec-08 04:00N 26°05' W 080°10'0 0.0
2017-Dec-08 03:30N 26°05' W 080°10'0 0.0
2017-Dec-08 03:00N 26°05' W 080°10'0 0.0
2017-Dec-08 02:30N 26°05' W 080°10'0 0.0
2017-Dec-08 02:00N 26°05' W 080°10'0 0.0
2017-Dec-08 01:30N 26°05' W 080°10'0 0.0
2017-Dec-08 00:57N 26°05' W 080°10'0 0.0
2017-Dec-08 00:27N 26°05' W 080°10'0 0.0
2017-Dec-07 23:57N 26°05' W 080°10'0 0.0
2017-Dec-07 23:27N 26°05' W 080°10'0 0.0
2017-Dec-07 22:57N 26°05' W 080°10'0 0.0
2017-Dec-07 22:27N 26°05' W 080°10'0 0.0
2017-Dec-07 21:57N 26°05' W 080°10'0 0.0
2017-Dec-07 21:27N 26°05' W 080°10'0 0.0
2017-Dec-07 20:57N 26°05' W 080°10'0 0.0
2017-Dec-07 20:27N 26°05' W 080°10'0 0.0
2017-Dec-07 19:57N 26°05' W 080°10'0 0.0
2017-Dec-07 19:27N 26°05' W 080°10'0 0.0
2017-Dec-07 18:54N 26°05' W 080°10'0 0.0
2017-Dec-07 18:27N 26°05' W 080°10'0 0.0
2017-Dec-07 17:57N 26°05' W 080°10'0 0.0
2017-Dec-07 17:27N 26°05' W 080°10'0 0.0
2017-Dec-07 16:57N 26°05' W 080°10'0 0.0
2017-Dec-07 16:27N 26°05' W 080°10'0 0.0
2017-Dec-07 15:57N 26°05' W 080°10'0 0.0
2017-Dec-07 15:27N 26°05' W 080°10'0 0.0
2017-Dec-07 14:57N 26°05' W 080°10'0 0.0
2017-Dec-07 14:27N 26°05' W 080°10'0 0.0
2017-Dec-07 13:57N 26°05' W 080°10'0 0.0
2017-Dec-07 13:27N 26°05' W 080°10'0 0.0
2017-Dec-07 12:57N 26°05' W 080°10'0 0.0
2017-Dec-07 12:23N 26°05' W 080°10'0 0.0
2017-Dec-07 11:53N 26°05' W 080°10'0 0.0
2017-Dec-07 11:23N 26°05' W 080°10'0 0.0
2017-Dec-07 10:59N 26°05' W 080°10'0 0.0
2017-Dec-07 10:29N 26°05' W 080°10'0 0.0
2017-Dec-07 09:59N 26°05' W 080°10'0 0.0
2017-Dec-07 09:29N 26°05' W 080°10'0 0.0
2017-Dec-07 08:53N 26°05' W 080°10'0 0.0
2017-Dec-07 08:29N 26°05' W 080°10'0 0.0
2017-Dec-07 07:59N 26°05' W 080°10'0 0.0
2017-Dec-07 07:29N 26°05' W 080°10'0 0.0
2017-Dec-07 06:59N 26°05' W 080°10'0 0.0
2017-Dec-07 06:21N 26°05' W 080°10'0 0.0
2017-Dec-07 05:59N 26°05' W 080°10'0 0.0
2017-Dec-07 05:29N 26°05' W 080°10'0 0.0
2017-Dec-07 04:59N 26°05' W 080°10'0 0.0
2017-Dec-07 04:20N 26°05' W 080°10'0 0.0
2017-Dec-07 03:59N 26°05' W 080°10'0 0.0
2017-Dec-07 03:29N 26°05' W 080°10'0 0.0
2017-Dec-07 02:59N 26°05' W 080°10'0 0.0
2017-Dec-07 02:20N 26°05' W 080°10'0 0.0
2017-Dec-07 01:59N 26°05' W 080°10'0 0.0
2017-Dec-07 01:29N 26°05' W 080°10'0 0.0
2017-Dec-07 00:59N 26°05' W 080°10'0 0.0
2017-Dec-07 00:29N 26°05' W 080°10'0 0.0
2017-Dec-06 23:59N 26°05' W 080°10'0 0.0
2017-Dec-06 23:29N 26°05' W 080°10'0 0.0
2017-Dec-06 22:59N 26°05' W 080°10'0 0.0
2017-Dec-06 22:29N 26°05' W 080°10'0 0.0
2017-Dec-06 21:56N 26°05' W 080°10'0 0.0
2017-Dec-06 21:26N 26°05' W 080°10'0 0.0
2017-Dec-06 20:56N 26°05' W 080°10'  

Dump ship's entire track history